sensor_id;sensor_type;location;lat;lon;timestamp;P1;durP1;ratioP1;P2;durP2;ratioP2
7485;SDS011;3784;54.098;9.998;2022-08-11T00:01:13;6.53;;;4.07;;
7485;SDS011;3784;54.098;9.998;2022-08-11T00:03:49;7.80;;;3.70;;
7485;SDS011;3784;54.098;9.998;2022-08-11T00:06:25;4.40;;;4.00;;
7485;SDS011;3784;54.098;9.998;2022-08-11T00:08:53;6.37;;;3.93;;
7485;SDS011;3784;54.098;9.998;2022-08-11T00:11:21;7.20;;;3.90;;
7485;SDS011;3784;54.098;9.998;2022-08-11T00:13:57;7.10;;;4.37;;
7485;SDS011;3784;54.098;9.998;2022-08-11T00:16:24;7.37;;;4.80;;
7485;SDS011;3784;54.098;9.998;2022-08-11T00:18:53;9.40;;;4.90;;
7485;SDS011;3784;54.098;9.998;2022-08-11T00:21:22;7.60;;;4.40;;
7485;SDS011;3784;54.098;9.998;2022-08-11T00:24:10;6.13;;;4.13;;
7485;SDS011;3784;54.098;9.998;2022-08-11T00:26:36;6.27;;;4.50;;
7485;SDS011;3784;54.098;9.998;2022-08-11T00:29:07;6.53;;;4.07;;
7485;SDS011;3784;54.098;9.998;2022-08-11T00:31:35;5.50;;;4.50;;
7485;SDS011;3784;54.098;9.998;2022-08-11T00:34:02;7.27;;;4.20;;
7485;SDS011;3784;54.098;9.998;2022-08-11T00:39:13;6.73;;;4.30;;
7485;SDS011;3784;54.098;9.998;2022-08-11T00:47:17;4.90;;;4.30;;
7485;SDS011;3784;54.098;9.998;2022-08-11T01:01:13;7.33;;;4.40;;
7485;SDS011;3784;54.098;9.998;2022-08-11T01:20:53;6.03;;;5.43;;
7485;SDS011;3784;54.098;9.998;2022-08-11T01:46:42;5.77;;;5.20;;
7485;SDS011;3784;54.098;9.998;2022-08-11T01:49:16;5.17;;;4.67;;
7485;SDS011;3784;54.098;9.998;2022-08-11T01:55:21;4.60;;;4.17;;
7485;SDS011;3784;54.098;9.998;2022-08-11T02:01:26;5.47;;;4.73;;
7485;SDS011;3784;54.098;9.998;2022-08-11T02:04:23;4.93;;;4.53;;
7485;SDS011;3784;54.098;9.998;2022-08-11T02:06:57;6.97;;;4.60;;
7485;SDS011;3784;54.098;9.998;2022-08-11T02:12:36;5.40;;;4.70;;
7485;SDS011;3784;54.098;9.998;2022-08-11T02:20:23;5.90;;;5.37;;
7485;SDS011;3784;54.098;9.998;2022-08-11T02:26:43;5.23;;;4.70;;
7485;SDS011;3784;54.098;9.998;2022-08-11T02:29:18;5.20;;;4.70;;
7485;SDS011;3784;54.098;9.998;2022-08-11T02:32:11;7.97;;;5.13;;
7485;SDS011;3784;54.098;9.998;2022-08-11T02:46:22;5.80;;;4.43;;
7485;SDS011;3784;54.098;9.998;2022-08-11T02:48:57;5.10;;;4.60;;
7485;SDS011;3784;54.098;9.998;2022-08-11T02:52:02;6.37;;;5.70;;
7485;SDS011;3784;54.098;9.998;2022-08-11T02:55:05;6.00;;;5.50;;
7485;SDS011;3784;54.098;9.998;2022-08-11T03:01:05;6.83;;;6.10;;
7485;SDS011;3784;54.098;9.998;2022-08-11T03:06:37;8.70;;;7.80;;
7485;SDS011;3784;54.098;9.998;2022-08-11T03:09:16;7.93;;;7.20;;
7485;SDS011;3784;54.098;9.998;2022-08-11T03:18:03;5.93;;;5.43;;
7485;SDS011;3784;54.098;9.998;2022-08-11T03:20:48;6.00;;;5.50;;
7485;SDS011;3784;54.098;9.998;2022-08-11T03:23:34;7.53;;;6.77;;
7485;SDS011;3784;54.098;9.998;2022-08-11T03:26:11;5.93;;;5.33;;
7485;SDS011;3784;54.098;9.998;2022-08-11T03:28:44;7.00;;;5.50;;
7485;SDS011;3784;54.098;9.998;2022-08-11T03:34:06;6.07;;;5.27;;
7485;SDS011;3784;54.098;9.998;2022-08-11T03:42:12;8.83;;;7.47;;
7485;SDS011;3784;54.098;9.998;2022-08-11T03:44:49;6.47;;;5.87;;
7485;SDS011;3784;54.098;9.998;2022-08-11T04:11:17;5.63;;;5.17;;
7485;SDS011;3784;54.098;9.998;2022-08-11T04:22:52;6.60;;;4.83;;
7485;SDS011;3784;54.098;9.998;2022-08-11T04:26:04;6.93;;;4.87;;
7485;SDS011;3784;54.098;9.998;2022-08-11T04:34:34;5.57;;;5.03;;
7485;SDS011;3784;54.098;9.998;2022-08-11T04:40:17;6.70;;;6.00;;
7485;SDS011;3784;54.098;9.998;2022-08-11T04:43:12;6.90;;;6.30;;
7485;SDS011;3784;54.098;9.998;2022-08-11T04:46:00;8.23;;;7.17;;
7485;SDS011;3784;54.098;9.998;2022-08-11T04:49:05;7.33;;;6.63;;
7485;SDS011;3784;54.098;9.998;2022-08-11T05:12:58;6.83;;;6.23;;
7485;SDS011;3784;54.098;9.998;2022-08-11T05:18:49;6.20;;;5.67;;
7485;SDS011;3784;54.098;9.998;2022-08-11T05:21:36;6.53;;;5.73;;
7485;SDS011;3784;54.098;9.998;2022-08-11T05:27:31;7.70;;;5.37;;
7485;SDS011;3784;54.098;9.998;2022-08-11T05:30:20;7.57;;;5.77;;
7485;SDS011;3784;54.098;9.998;2022-08-11T05:33:19;6.53;;;5.73;;
7485;SDS011;3784;54.098;9.998;2022-08-11T05:36:26;5.70;;;5.13;;
7485;SDS011;3784;54.098;9.998;2022-08-11T05:38:56;5.77;;;5.23;;
7485;SDS011;3784;54.098;9.998;2022-08-11T05:41:43;5.47;;;4.67;;
7485;SDS011;3784;54.098;9.998;2022-08-11T05:44:28;4.80;;;4.40;;
7485;SDS011;3784;54.098;9.998;2022-08-11T05:47:21;4.50;;;4.03;;
7485;SDS011;3784;54.098;9.998;2022-08-11T05:50:08;9.73;;;4.87;;
7485;SDS011;3784;54.098;9.998;2022-08-11T05:52:58;4.27;;;3.90;;
7485;SDS011;3784;54.098;9.998;2022-08-11T05:55:45;4.83;;;4.30;;
7485;SDS011;3784;54.098;9.998;2022-08-11T05:58:50;4.63;;;4.23;;
7485;SDS011;3784;54.098;9.998;2022-08-11T06:01:28;4.93;;;3.90;;
7485;SDS011;3784;54.098;9.998;2022-08-11T06:03:57;4.17;;;3.57;;
7485;SDS011;3784;54.098;9.998;2022-08-11T06:12:17;6.47;;;3.70;;
7485;SDS011;3784;54.098;9.998;2022-08-11T06:14:45;6.97;;;3.87;;
7485;SDS011;3784;54.098;9.998;2022-08-11T06:17:21;3.67;;;3.27;;
7485;SDS011;3784;54.098;9.998;2022-08-11T06:19:48;4.93;;;3.13;;
7485;SDS011;3784;54.098;9.998;2022-08-11T06:22:20;3.77;;;2.70;;
7485;SDS011;3784;54.098;9.998;2022-08-11T06:24:53;3.37;;;3.07;;
7485;SDS011;3784;54.098;9.998;2022-08-11T06:27:22;3.63;;;2.83;;
7485;SDS011;3784;54.098;9.998;2022-08-11T06:29:52;4.73;;;3.00;;
7485;SDS011;3784;54.098;9.998;2022-08-11T06:32:24;3.70;;;2.97;;
7485;SDS011;3784;54.098;9.998;2022-08-11T06:43:36;5.73;;;3.33;;
7485;SDS011;3784;54.098;9.998;2022-08-11T06:47:03;4.53;;;3.13;;
7485;SDS011;3784;54.098;9.998;2022-08-11T06:49:14;5.70;;;3.17;;
7485;SDS011;3784;54.098;9.998;2022-08-11T06:52:05;3.57;;;2.90;;
7485;SDS011;3784;54.098;9.998;2022-08-11T06:54:53;6.30;;;3.00;;
7485;SDS011;3784;54.098;9.998;2022-08-11T06:57:22;2.60;;;2.40;;
7485;SDS011;3784;54.098;9.998;2022-08-11T07:00:07;3.97;;;2.60;;
7485;SDS011;3784;54.098;9.998;2022-08-11T07:05:39;7.10;;;2.73;;
7485;SDS011;3784;54.098;9.998;2022-08-11T07:08:14;6.47;;;2.80;;
7485;SDS011;3784;54.098;9.998;2022-08-11T07:14:13;4.03;;;2.80;;
7485;SDS011;3784;54.098;9.998;2022-08-11T07:17:03;2.50;;;2.30;;
7485;SDS011;3784;54.098;9.998;2022-08-11T07:19:33;3.73;;;2.37;;
7485;SDS011;3784;54.098;9.998;2022-08-11T07:22:22;3.23;;;2.33;;
7485;SDS011;3784;54.098;9.998;2022-08-11T07:25:14;3.60;;;2.50;;
7485;SDS011;3784;54.098;9.998;2022-08-11T07:28:02;6.97;;;2.40;;
7485;SDS011;3784;54.098;9.998;2022-08-11T07:30:55;3.90;;;2.40;;
7485;SDS011;3784;54.098;9.998;2022-08-11T07:33:26;2.80;;;2.20;;
7485;SDS011;3784;54.098;9.998;2022-08-11T07:36:36;6.03;;;2.10;;
7485;SDS011;3784;54.098;9.998;2022-08-11T07:39:06;3.10;;;2.80;;
7485;SDS011;3784;54.098;9.998;2022-08-11T07:41:33;7.70;;;2.10;;
7485;SDS011;3784;54.098;9.998;2022-08-11T07:44:00;4.70;;;2.23;;
7485;SDS011;3784;54.098;9.998;2022-08-11T07:46:39;4.70;;;2.37;;
7485;SDS011;3784;54.098;9.998;2022-08-11T07:49:26;4.27;;;2.67;;
7485;SDS011;3784;54.098;9.998;2022-08-11T07:52:12;3.17;;;2.10;;
7485;SDS011;3784;54.098;9.998;2022-08-11T07:54:57;4.10;;;2.07;;
7485;SDS011;3784;54.098;9.998;2022-08-11T07:57:35;3.47;;;2.03;;
7485;SDS011;3784;54.098;9.998;2022-08-11T08:00:48;5.83;;;2.40;;
7485;SDS011;3784;54.098;9.998;2022-08-11T08:03:47;5.70;;;2.23;;
7485;SDS011;3784;54.098;9.998;2022-08-11T08:06:32;7.27;;;2.17;;
7485;SDS011;3784;54.098;9.998;2022-08-11T08:09:18;4.07;;;1.90;;
7485;SDS011;3784;54.098;9.998;2022-08-11T08:12:04;3.00;;;2.10;;
7485;SDS011;3784;54.098;9.998;2022-08-11T08:14:51;4.13;;;2.10;;
7485;SDS011;3784;54.098;9.998;2022-08-11T08:17:39;5.73;;;2.07;;
7485;SDS011;3784;54.098;9.998;2022-08-11T08:20:46;5.23;;;2.33;;
7485;SDS011;3784;54.098;9.998;2022-08-11T08:23:20;5.47;;;2.20;;
7485;SDS011;3784;54.098;9.998;2022-08-11T08:26:02;7.33;;;2.20;;
7485;SDS011;3784;54.098;9.998;2022-08-11T08:28:41;3.80;;;2.00;;
7485;SDS011;3784;54.098;9.998;2022-08-11T08:31:11;4.90;;;2.17;;
7485;SDS011;3784;54.098;9.998;2022-08-11T08:33:38;3.87;;;1.90;;
7485;SDS011;3784;54.098;9.998;2022-08-11T08:36:06;3.13;;;1.93;;
7485;SDS011;3784;54.098;9.998;2022-08-11T08:38:47;7.37;;;2.10;;
7485;SDS011;3784;54.098;9.998;2022-08-11T08:41:28;3.43;;;2.30;;
7485;SDS011;3784;54.098;9.998;2022-08-11T08:43:58;3.43;;;2.00;;
7485;SDS011;3784;54.098;9.998;2022-08-11T08:46:50;4.93;;;2.17;;
7485;SDS011;3784;54.098;9.998;2022-08-11T08:49:29;3.67;;;2.10;;
7485;SDS011;3784;54.098;9.998;2022-08-11T08:51:58;3.83;;;2.10;;
7485;SDS011;3784;54.098;9.998;2022-08-11T08:54:48;4.17;;;2.40;;
7485;SDS011;3784;54.098;9.998;2022-08-11T08:57:23;3.47;;;2.17;;
7485;SDS011;3784;54.098;9.998;2022-08-11T08:59:53;6.53;;;2.00;;
7485;SDS011;3784;54.098;9.998;2022-08-11T09:02:22;4.23;;;2.10;;
7485;SDS011;3784;54.098;9.998;2022-08-11T09:05:00;7.60;;;2.07;;
7485;SDS011;3784;54.098;9.998;2022-08-11T09:07:29;4.30;;;2.27;;
7485;SDS011;3784;54.098;9.998;2022-08-11T09:10:05;3.20;;;1.90;;
7485;SDS011;3784;54.098;9.998;2022-08-11T09:12:33;3.27;;;1.90;;
7485;SDS011;3784;54.098;9.998;2022-08-11T09:15:04;4.57;;;1.73;;
7485;SDS011;3784;54.098;9.998;2022-08-11T09:17:34;5.83;;;2.00;;
7485;SDS011;3784;54.098;9.998;2022-08-11T09:20:05;2.30;;;2.10;;
7485;SDS011;3784;54.098;9.998;2022-08-11T09:22:35;3.37;;;1.83;;
7485;SDS011;3784;54.098;9.998;2022-08-11T09:25:41;3.07;;;1.90;;
7485;SDS011;3784;54.098;9.998;2022-08-11T09:28:26;4.10;;;2.20;;
7485;SDS011;3784;54.098;9.998;2022-08-11T09:30:57;5.83;;;2.20;;
7485;SDS011;3784;54.098;9.998;2022-08-11T09:33:26;2.00;;;1.80;;
7485;SDS011;3784;54.098;9.998;2022-08-11T09:35:54;5.23;;;1.87;;
7485;SDS011;3784;54.098;9.998;2022-08-11T09:38:23;2.77;;;1.47;;
7485;SDS011;3784;54.098;9.998;2022-08-11T09:41:15;4.07;;;1.97;;
7485;SDS011;3784;54.098;9.998;2022-08-11T09:43:43;3.43;;;1.70;;
7485;SDS011;3784;54.098;9.998;2022-08-11T09:46:30;5.17;;;1.80;;
7485;SDS011;3784;54.098;9.998;2022-08-11T09:48:59;3.00;;;1.87;;
7485;SDS011;3784;54.098;9.998;2022-08-11T09:51:30;2.33;;;1.60;;
7485;SDS011;3784;54.098;9.998;2022-08-11T09:54:01;3.33;;;1.70;;
7485;SDS011;3784;54.098;9.998;2022-08-11T09:56:32;7.17;;;1.97;;
7485;SDS011;3784;54.098;9.998;2022-08-11T09:59:17;5.27;;;2.00;;
7485;SDS011;3784;54.098;9.998;2022-08-11T10:01:46;2.10;;;1.70;;
7485;SDS011;3784;54.098;9.998;2022-08-11T10:04:19;3.53;;;1.70;;
7485;SDS011;3784;54.098;9.998;2022-08-11T10:06:49;4.60;;;1.50;;
7485;SDS011;3784;54.098;9.998;2022-08-11T10:09:40;3.67;;;1.60;;
7485;SDS011;3784;54.098;9.998;2022-08-11T10:12:10;1.77;;;1.60;;
7485;SDS011;3784;54.098;9.998;2022-08-11T10:14:41;2.90;;;1.70;;
7485;SDS011;3784;54.098;9.998;2022-08-11T10:17:29;3.47;;;1.70;;
7485;SDS011;3784;54.098;9.998;2022-08-11T10:19:58;6.97;;;1.60;;
7485;SDS011;3784;54.098;9.998;2022-08-11T10:22:31;3.53;;;1.50;;
7485;SDS011;3784;54.098;9.998;2022-08-11T10:25:17;2.27;;;1.50;;
7485;SDS011;3784;54.098;9.998;2022-08-11T10:28:03;2.80;;;1.40;;
7485;SDS011;3784;54.098;9.998;2022-08-11T10:30:52;2.60;;;1.80;;
7485;SDS011;3784;54.098;9.998;2022-08-11T10:33:39;4.23;;;1.40;;
7485;SDS011;3784;54.098;9.998;2022-08-11T10:36:29;2.83;;;1.50;;
7485;SDS011;3784;54.098;9.998;2022-08-11T10:38:57;3.10;;;1.37;;
7485;SDS011;3784;54.098;9.998;2022-08-11T10:41:25;3.60;;;1.53;;
7485;SDS011;3784;54.098;9.998;2022-08-11T10:44:35;1.87;;;1.60;;
7485;SDS011;3784;54.098;9.998;2022-08-11T10:47:04;2.50;;;1.40;;
7485;SDS011;3784;54.098;9.998;2022-08-11T10:49:50;1.53;;;1.23;;
7485;SDS011;3784;54.098;9.998;2022-08-11T10:52:38;2.23;;;1.57;;
7485;SDS011;3784;54.098;9.998;2022-08-11T10:55:24;2.73;;;1.60;;
7485;SDS011;3784;54.098;9.998;2022-08-11T10:58:10;1.43;;;1.20;;
7485;SDS011;3784;54.098;9.998;2022-08-11T11:00:56;1.57;;;1.47;;
7485;SDS011;3784;54.098;9.998;2022-08-11T11:03:24;1.47;;;1.27;;
7485;SDS011;3784;54.098;9.998;2022-08-11T11:05:52;3.60;;;1.60;;
7485;SDS011;3784;54.098;9.998;2022-08-11T11:08:44;3.10;;;1.70;;
7485;SDS011;3784;54.098;9.998;2022-08-11T11:11:18;2.10;;;1.53;;
7485;SDS011;3784;54.098;9.998;2022-08-11T11:13:47;1.90;;;1.50;;
7485;SDS011;3784;54.098;9.998;2022-08-11T11:16:35;3.80;;;1.57;;
7485;SDS011;3784;54.098;9.998;2022-08-11T11:19:22;1.50;;;1.40;;
7485;SDS011;3784;54.098;9.998;2022-08-11T11:21:51;3.73;;;1.67;;
7485;SDS011;3784;54.098;9.998;2022-08-11T11:27:16;2.20;;;1.50;;
7485;SDS011;3784;54.098;9.998;2022-08-11T11:30:01;3.00;;;1.53;;
7485;SDS011;3784;54.098;9.998;2022-08-11T11:32:38;4.17;;;1.43;;
7485;SDS011;3784;54.098;9.998;2022-08-11T11:37:42;3.03;;;1.53;;
7485;SDS011;3784;54.098;9.998;2022-08-11T11:40:29;1.80;;;1.50;;
7485;SDS011;3784;54.098;9.998;2022-08-11T11:42:57;3.40;;;1.50;;
7485;SDS011;3784;54.098;9.998;2022-08-11T11:45:24;2.70;;;1.50;;
7485;SDS011;3784;54.098;9.998;2022-08-11T11:47:52;3.20;;;1.90;;
7485;SDS011;3784;54.098;9.998;2022-08-11T11:50:33;2.17;;;1.50;;
7485;SDS011;3784;54.098;9.998;2022-08-11T11:53:06;2.57;;;1.70;;
7485;SDS011;3784;54.098;9.998;2022-08-11T11:55:34;2.53;;;1.50;;
7485;SDS011;3784;54.098;9.998;2022-08-11T11:58:01;2.60;;;1.80;;
7485;SDS011;3784;54.098;9.998;2022-08-11T12:00:47;1.87;;;1.50;;
7485;SDS011;3784;54.098;9.998;2022-08-11T12:03:33;3.77;;;1.50;;
7485;SDS011;3784;54.098;9.998;2022-08-11T12:06:01;5.30;;;1.57;;
7485;SDS011;3784;54.098;9.998;2022-08-11T12:08:28;3.23;;;1.57;;
7485;SDS011;3784;54.098;9.998;2022-08-11T12:10:59;2.10;;;1.33;;
7485;SDS011;3784;54.098;9.998;2022-08-11T12:13:47;4.20;;;1.70;;
7485;SDS011;3784;54.098;9.998;2022-08-11T12:16:16;2.50;;;1.70;;
7485;SDS011;3784;54.098;9.998;2022-08-11T12:19:00;2.80;;;1.57;;
7485;SDS011;3784;54.098;9.998;2022-08-11T12:21:31;4.30;;;1.70;;
7485;SDS011;3784;54.098;9.998;2022-08-11T12:24:00;6.90;;;1.50;;
7485;SDS011;3784;54.098;9.998;2022-08-11T12:26:45;8.83;;;1.53;;
7485;SDS011;3784;54.098;9.998;2022-08-11T12:29:42;5.73;;;1.60;;
7485;SDS011;3784;54.098;9.998;2022-08-11T12:32:10;2.30;;;1.60;;
7485;SDS011;3784;54.098;9.998;2022-08-11T12:34:37;2.53;;;1.40;;
7485;SDS011;3784;54.098;9.998;2022-08-11T12:37:03;3.93;;;1.80;;
7485;SDS011;3784;54.098;9.998;2022-08-11T12:39:45;4.20;;;1.50;;
7485;SDS011;3784;54.098;9.998;2022-08-11T12:42:51;1.60;;;1.30;;
7485;SDS011;3784;54.098;9.998;2022-08-11T12:45:46;2.00;;;1.50;;
7485;SDS011;3784;54.098;9.998;2022-08-11T12:48:16;1.97;;;1.40;;
7485;SDS011;3784;54.098;9.998;2022-08-11T12:51:23;3.60;;;1.43;;
7485;SDS011;3784;54.098;9.998;2022-08-11T12:54:33;4.07;;;1.73;;
7485;SDS011;3784;54.098;9.998;2022-08-11T12:57:40;2.73;;;1.37;;
7485;SDS011;3784;54.098;9.998;2022-08-11T13:00:27;4.77;;;1.50;;
7485;SDS011;3784;54.098;9.998;2022-08-11T13:03:13;4.30;;;1.47;;
7485;SDS011;3784;54.098;9.998;2022-08-11T13:05:59;2.37;;;1.50;;
7485;SDS011;3784;54.098;9.998;2022-08-11T13:08:28;2.87;;;1.27;;
7485;SDS011;3784;54.098;9.998;2022-08-11T13:11:00;1.87;;;1.40;;
7485;SDS011;3784;54.098;9.998;2022-08-11T13:13:47;4.80;;;1.70;;
7485;SDS011;3784;54.098;9.998;2022-08-11T13:16:22;3.10;;;1.40;;
7485;SDS011;3784;54.098;9.998;2022-08-11T13:18:49;6.87;;;1.40;;
7485;SDS011;3784;54.098;9.998;2022-08-11T13:21:18;4.40;;;1.50;;
7485;SDS011;3784;54.098;9.998;2022-08-11T13:23:47;5.57;;;1.70;;
7485;SDS011;3784;54.098;9.998;2022-08-11T13:26:29;5.17;;;1.50;;
7485;SDS011;3784;54.098;9.998;2022-08-11T13:29:19;3.87;;;1.50;;
7485;SDS011;3784;54.098;9.998;2022-08-11T13:31:46;3.23;;;1.50;;
7485;SDS011;3784;54.098;9.998;2022-08-11T13:34:17;1.67;;;1.50;;
7485;SDS011;3784;54.098;9.998;2022-08-11T13:36:45;4.07;;;1.63;;
7485;SDS011;3784;54.098;9.998;2022-08-11T13:39:14;3.23;;;1.20;;
7485;SDS011;3784;54.098;9.998;2022-08-11T13:41:41;4.13;;;1.73;;
7485;SDS011;3784;54.098;9.998;2022-08-11T13:44:10;3.43;;;1.30;;
7485;SDS011;3784;54.098;9.998;2022-08-11T13:46:45;4.30;;;1.60;;
7485;SDS011;3784;54.098;9.998;2022-08-11T13:49:15;3.13;;;1.80;;
7485;SDS011;3784;54.098;9.998;2022-08-11T13:51:42;1.70;;;1.40;;
7485;SDS011;3784;54.098;9.998;2022-08-11T13:56:44;2.73;;;1.53;;
7485;SDS011;3784;54.098;9.998;2022-08-11T13:59:12;2.17;;;1.70;;
7485;SDS011;3784;54.098;9.998;2022-08-11T14:01:41;4.97;;;1.57;;
7485;SDS011;3784;54.098;9.998;2022-08-11T14:04:37;5.03;;;1.53;;
7485;SDS011;3784;54.098;9.998;2022-08-11T14:07:07;3.10;;;1.40;;
7485;SDS011;3784;54.098;9.998;2022-08-11T14:09:36;2.10;;;1.50;;
7485;SDS011;3784;54.098;9.998;2022-08-11T14:12:08;3.43;;;1.67;;
7485;SDS011;3784;54.098;9.998;2022-08-11T14:15:53;1.97;;;1.33;;
7485;SDS011;3784;54.098;9.998;2022-08-11T14:18:00;3.27;;;1.70;;
7485;SDS011;3784;54.098;9.998;2022-08-11T14:20:30;2.67;;;1.53;;
7485;SDS011;3784;54.098;9.998;2022-08-11T14:23:21;4.33;;;1.40;;
7485;SDS011;3784;54.098;9.998;2022-08-11T14:25:52;1.60;;;1.40;;
7485;SDS011;3784;54.098;9.998;2022-08-11T14:28:38;2.83;;;1.70;;
7485;SDS011;3784;54.098;9.998;2022-08-11T14:31:11;4.30;;;1.30;;
7485;SDS011;3784;54.098;9.998;2022-08-11T14:33:39;1.97;;;1.30;;
7485;SDS011;3784;54.098;9.998;2022-08-11T14:36:27;3.90;;;1.60;;
7485;SDS011;3784;54.098;9.998;2022-08-11T14:38:56;3.10;;;1.50;;
7485;SDS011;3784;54.098;9.998;2022-08-11T14:41:23;3.40;;;1.70;;
7485;SDS011;3784;54.098;9.998;2022-08-11T14:44:30;11.83;;;1.73;;
7485;SDS011;3784;54.098;9.998;2022-08-11T14:47:18;1.90;;;1.47;;
7485;SDS011;3784;54.098;9.998;2022-08-11T14:49:57;3.67;;;1.50;;
7485;SDS011;3784;54.098;9.998;2022-08-11T14:52:37;4.87;;;1.80;;
7485;SDS011;3784;54.098;9.998;2022-08-11T14:55:04;4.30;;;1.50;;
7485;SDS011;3784;54.098;9.998;2022-08-11T14:57:50;2.07;;;1.40;;
7485;SDS011;3784;54.098;9.998;2022-08-11T15:00:21;3.37;;;1.50;;
7485;SDS011;3784;54.098;9.998;2022-08-11T15:02:48;2.83;;;1.53;;
7485;SDS011;3784;54.098;9.998;2022-08-11T15:05:33;3.87;;;1.50;;
7485;SDS011;3784;54.098;9.998;2022-08-11T15:08:01;3.73;;;1.50;;
7485;SDS011;3784;54.098;9.998;2022-08-11T15:10:28;3.20;;;1.43;;
7485;SDS011;3784;54.098;9.998;2022-08-11T15:12:55;2.93;;;1.30;;
7485;SDS011;3784;54.098;9.998;2022-08-11T15:15:22;5.10;;;1.57;;
7485;SDS011;3784;54.098;9.998;2022-08-11T15:18:09;2.97;;;1.80;;
7485;SDS011;3784;54.098;9.998;2022-08-11T15:20:39;2.70;;;1.33;;
7485;SDS011;3784;54.098;9.998;2022-08-11T15:23:24;6.50;;;1.67;;
7485;SDS011;3784;54.098;9.998;2022-08-11T15:26:14;2.93;;;1.40;;
7485;SDS011;3784;54.098;9.998;2022-08-11T15:28:47;2.73;;;1.70;;
7485;SDS011;3784;54.098;9.998;2022-08-11T15:31:35;3.70;;;1.37;;
7485;SDS011;3784;54.098;9.998;2022-08-11T15:34:22;1.67;;;1.37;;
7485;SDS011;3784;54.098;9.998;2022-08-11T15:37:10;4.20;;;1.33;;
7485;SDS011;3784;54.098;9.998;2022-08-11T15:40:02;3.17;;;1.63;;
7485;SDS011;3784;54.098;9.998;2022-08-11T15:46:16;3.90;;;1.87;;
7485;SDS011;3784;54.098;9.998;2022-08-11T15:48:56;2.87;;;1.50;;
7485;SDS011;3784;54.098;9.998;2022-08-11T15:51:29;1.93;;;1.30;;
7485;SDS011;3784;54.098;9.998;2022-08-11T15:54:02;3.30;;;1.43;;
7485;SDS011;3784;54.098;9.998;2022-08-11T15:56:34;3.30;;;1.37;;
7485;SDS011;3784;54.098;9.998;2022-08-11T15:59:07;2.00;;;1.47;;
7485;SDS011;3784;54.098;9.998;2022-08-11T16:02:07;3.80;;;1.80;;
7485;SDS011;3784;54.098;9.998;2022-08-11T16:04:55;3.40;;;1.60;;
7485;SDS011;3784;54.098;9.998;2022-08-11T16:07:28;5.77;;;1.50;;
7485;SDS011;3784;54.098;9.998;2022-08-11T16:10:12;2.23;;;1.50;;
7485;SDS011;3784;54.098;9.998;2022-08-11T16:12:45;1.60;;;1.40;;
7485;SDS011;3784;54.098;9.998;2022-08-11T16:15:56;2.83;;;1.63;;
7485;SDS011;3784;54.098;9.998;2022-08-11T16:18:45;3.67;;;1.37;;
7485;SDS011;3784;54.098;9.998;2022-08-11T16:21:21;2.93;;;1.50;;
7485;SDS011;3784;54.098;9.998;2022-08-11T16:23:59;2.43;;;1.40;;
7485;SDS011;3784;54.098;9.998;2022-08-11T16:26:30;1.83;;;1.23;;
7485;SDS011;3784;54.098;9.998;2022-08-11T16:29:17;1.97;;;1.30;;
7485;SDS011;3784;54.098;9.998;2022-08-11T16:31:44;2.70;;;1.40;;
7485;SDS011;3784;54.098;9.998;2022-08-11T16:34:32;5.00;;;1.53;;
7485;SDS011;3784;54.098;9.998;2022-08-11T16:37:18;2.70;;;1.30;;
7485;SDS011;3784;54.098;9.998;2022-08-11T16:40:05;3.17;;;1.57;;
7485;SDS011;3784;54.098;9.998;2022-08-11T16:42:34;2.17;;;1.97;;
7485;SDS011;3784;54.098;9.998;2022-08-11T16:45:36;5.63;;;1.80;;
7485;SDS011;3784;54.098;9.998;2022-08-11T16:48:24;3.67;;;1.23;;
7485;SDS011;3784;54.098;9.998;2022-08-11T16:51:06;2.77;;;1.50;;
7485;SDS011;3784;54.098;9.998;2022-08-11T16:53:33;2.97;;;1.40;;
7485;SDS011;3784;54.098;9.998;2022-08-11T16:56:22;3.07;;;1.27;;
7485;SDS011;3784;54.098;9.998;2022-08-11T16:58:52;3.60;;;1.47;;
7485;SDS011;3784;54.098;9.998;2022-08-11T17:01:39;2.90;;;1.40;;
7485;SDS011;3784;54.098;9.998;2022-08-11T17:04:10;3.23;;;1.43;;
7485;SDS011;3784;54.098;9.998;2022-08-11T17:07:15;2.23;;;1.70;;
7485;SDS011;3784;54.098;9.998;2022-08-11T17:10:27;2.67;;;1.60;;
7485;SDS011;3784;54.098;9.998;2022-08-11T17:13:27;4.03;;;1.73;;
7485;SDS011;3784;54.098;9.998;2022-08-11T17:15:57;3.13;;;1.80;;
7485;SDS011;3784;54.098;9.998;2022-08-11T17:18:37;4.33;;;2.20;;
7485;SDS011;3784;54.098;9.998;2022-08-11T17:21:19;3.93;;;1.93;;
7485;SDS011;3784;54.098;9.998;2022-08-11T17:24:07;5.43;;;1.77;;
7485;SDS011;3784;54.098;9.998;2022-08-11T17:26:41;3.53;;;3.23;;
7485;SDS011;3784;54.098;9.998;2022-08-11T17:29:33;4.27;;;3.13;;
7485;SDS011;3784;54.098;9.998;2022-08-11T17:32:23;3.50;;;1.87;;
7485;SDS011;3784;54.098;9.998;2022-08-11T17:35:24;5.07;;;2.67;;
7485;SDS011;3784;54.098;9.998;2022-08-11T17:38:13;3.47;;;1.87;;
7485;SDS011;3784;54.098;9.998;2022-08-11T17:40:45;7.30;;;1.80;;
7485;SDS011;3784;54.098;9.998;2022-08-11T17:43:31;2.67;;;1.50;;
7485;SDS011;3784;54.098;9.998;2022-08-11T17:46:17;2.07;;;1.53;;
7485;SDS011;3784;54.098;9.998;2022-08-11T17:49:04;3.23;;;1.73;;
7485;SDS011;3784;54.098;9.998;2022-08-11T17:51:34;2.87;;;1.40;;
7485;SDS011;3784;54.098;9.998;2022-08-11T17:54:21;4.73;;;1.37;;
7485;SDS011;3784;54.098;9.998;2022-08-11T17:57:16;1.77;;;1.20;;
7485;SDS011;3784;54.098;9.998;2022-08-11T18:00:02;1.70;;;1.20;;
7485;SDS011;3784;54.098;9.998;2022-08-11T18:02:32;6.03;;;1.63;;
7485;SDS011;3784;54.098;9.998;2022-08-11T18:05:19;3.07;;;1.47;;
7485;SDS011;3784;54.098;9.998;2022-08-11T18:07:48;3.43;;;1.60;;
7485;SDS011;3784;54.098;9.998;2022-08-11T18:10:34;4.47;;;1.40;;
7485;SDS011;3784;54.098;9.998;2022-08-11T18:13:20;3.33;;;1.40;;
7485;SDS011;3784;54.098;9.998;2022-08-11T18:16:09;2.63;;;1.50;;
7485;SDS011;3784;54.098;9.998;2022-08-11T18:18:54;5.10;;;1.40;;
7485;SDS011;3784;54.098;9.998;2022-08-11T18:21:41;4.83;;;1.47;;
7485;SDS011;3784;54.098;9.998;2022-08-11T18:24:46;10.23;;;2.20;;
7485;SDS011;3784;54.098;9.998;2022-08-11T18:27:34;9.87;;;2.37;;
7485;SDS011;3784;54.098;9.998;2022-08-11T18:30:22;10.70;;;2.37;;
7485;SDS011;3784;54.098;9.998;2022-08-11T18:33:08;6.77;;;1.90;;
7485;SDS011;3784;54.098;9.998;2022-08-11T18:36:20;13.10;;;1.93;;
7485;SDS011;3784;54.098;9.998;2022-08-11T18:39:08;9.17;;;2.10;;
7485;SDS011;3784;54.098;9.998;2022-08-11T18:41:57;13.20;;;1.87;;
7485;SDS011;3784;54.098;9.998;2022-08-11T18:44:56;12.53;;;1.60;;
7485;SDS011;3784;54.098;9.998;2022-08-11T18:47:43;14.63;;;2.33;;
7485;SDS011;3784;54.098;9.998;2022-08-11T18:50:30;7.30;;;2.17;;
7485;SDS011;3784;54.098;9.998;2022-08-11T18:53:36;13.80;;;1.90;;
7485;SDS011;3784;54.098;9.998;2022-08-11T18:56:23;11.73;;;2.00;;
7485;SDS011;3784;54.098;9.998;2022-08-11T18:59:09;8.20;;;1.90;;
7485;SDS011;3784;54.098;9.998;2022-08-11T19:01:55;13.37;;;2.00;;
7485;SDS011;3784;54.098;9.998;2022-08-11T19:04:41;7.43;;;1.80;;
7485;SDS011;3784;54.098;9.998;2022-08-11T19:07:27;9.00;;;2.00;;
7485;SDS011;3784;54.098;9.998;2022-08-11T19:10:13;8.00;;;1.90;;
7485;SDS011;3784;54.098;9.998;2022-08-11T19:12:58;11.33;;;2.40;;
7485;SDS011;3784;54.098;9.998;2022-08-11T19:15:44;6.80;;;1.80;;
7485;SDS011;3784;54.098;9.998;2022-08-11T19:18:31;10.60;;;2.30;;
7485;SDS011;3784;54.098;9.998;2022-08-11T19:21:17;6.47;;;1.90;;
7485;SDS011;3784;54.098;9.998;2022-08-11T19:24:03;7.47;;;1.93;;
7485;SDS011;3784;54.098;9.998;2022-08-11T19:26:49;4.10;;;2.00;;
7485;SDS011;3784;54.098;9.998;2022-08-11T19:29:34;9.37;;;2.17;;
7485;SDS011;3784;54.098;9.998;2022-08-11T19:32:38;6.10;;;1.80;;
7485;SDS011;3784;54.098;9.998;2022-08-11T19:35:24;4.20;;;1.80;;
7485;SDS011;3784;54.098;9.998;2022-08-11T19:38:10;5.43;;;1.87;;
7485;SDS011;3784;54.098;9.998;2022-08-11T19:40:56;4.00;;;2.00;;
7485;SDS011;3784;54.098;9.998;2022-08-11T19:44:03;6.77;;;1.90;;
7485;SDS011;3784;54.098;9.998;2022-08-11T19:46:49;5.33;;;1.83;;
7485;SDS011;3784;54.098;9.998;2022-08-11T19:49:35;4.50;;;1.80;;
7485;SDS011;3784;54.098;9.998;2022-08-11T19:52:20;6.70;;;1.80;;
7485;SDS011;3784;54.098;9.998;2022-08-11T19:55:07;7.33;;;2.10;;
7485;SDS011;3784;54.098;9.998;2022-08-11T19:57:53;5.83;;;2.00;;
7485;SDS011;3784;54.098;9.998;2022-08-11T20:00:40;7.03;;;2.03;;
7485;SDS011;3784;54.098;9.998;2022-08-11T20:03:25;5.77;;;1.80;;
7485;SDS011;3784;54.098;9.998;2022-08-11T20:06:11;2.67;;;1.93;;
7485;SDS011;3784;54.098;9.998;2022-08-11T20:08:58;5.10;;;1.93;;
7485;SDS011;3784;54.098;9.998;2022-08-11T20:11:45;4.83;;;1.90;;